sensor_id;sensor_type;location;lat;lon;timestamp;temperature;humidity
27803;DHT22;15182;48.174;11.562;2022-12-18T00:00:32;1.60;96.40
27803;DHT22;15182;48.174;11.562;2022-12-18T00:03:06;1.60;96.10
27803;DHT22;15182;48.174;11.562;2022-12-18T00:05:45;1.60;96.10
27803;DHT22;15182;48.174;11.562;2022-12-18T00:08:15;1.60;96.10
27803;DHT22;15182;48.174;11.562;2022-12-18T00:10:47;1.50;96.10
27803;DHT22;15182;48.174;11.562;2022-12-18T00:13:20;1.50;96.20
27803;DHT22;15182;48.174;11.562;2022-12-18T00:15:51;1.50;96.20
27803;DHT22;15182;48.174;11.562;2022-12-18T00:18:22;1.50;96.10
27803;DHT22;15182;48.174;11.562;2022-12-18T00:20:54;1.50;96.20
27803;DHT22;15182;48.174;11.562;2022-12-18T00:23:30;1.40;96.10
27803;DHT22;15182;48.174;11.562;2022-12-18T00:26:03;1.40;96.10
27803;DHT22;15182;48.174;11.562;2022-12-18T00:28:38;1.40;96.20
27803;DHT22;15182;48.174;11.562;2022-12-18T00:31:12;1.40;96.20
27803;DHT22;15182;48.174;11.562;2022-12-18T00:33:46;1.40;96.20
27803;DHT22;15182;48.174;11.562;2022-12-18T00:36:20;1.40;96.20
27803;DHT22;15182;48.174;11.562;2022-12-18T00:38:55;1.40;96.20
27803;DHT22;15182;48.174;11.562;2022-12-18T00:41:27;1.40;96.10
27803;DHT22;15182;48.174;11.562;2022-12-18T00:44:18;1.30;96.20
27803;DHT22;15182;48.174;11.562;2022-12-18T00:46:52;1.30;96.20
27803;DHT22;15182;48.174;11.562;2022-12-18T00:49:23;1.30;96.20
27803;DHT22;15182;48.174;11.562;2022-12-18T00:51:57;1.30;96.20
27803;DHT22;15182;48.174;11.562;2022-12-18T00:54:29;1.30;96.20
27803;DHT22;15182;48.174;11.562;2022-12-18T00:57:00;1.30;96.20
27803;DHT22;15182;48.174;11.562;2022-12-18T00:59:32;1.30;96.20
27803;DHT22;15182;48.174;11.562;2022-12-18T01:02:04;1.30;96.20
27803;DHT22;15182;48.174;11.562;2022-12-18T01:04:35;1.30;96.20
27803;DHT22;15182;48.174;11.562;2022-12-18T01:07:06;1.20;96.20
27803;DHT22;15182;48.174;11.562;2022-12-18T01:09:38;1.20;96.20
27803;DHT22;15182;48.174;11.562;2022-12-18T01:12:09;1.20;96.20
27803;DHT22;15182;48.174;11.562;2022-12-18T01:14:42;1.20;96.30
27803;DHT22;15182;48.174;11.562;2022-12-18T01:17:15;1.20;96.30
27803;DHT22;15182;48.174;11.562;2022-12-18T01:19:46;1.20;96.30
27803;DHT22;15182;48.174;11.562;2022-12-18T01:22:17;1.20;96.30
27803;DHT22;15182;48.174;11.562;2022-12-18T01:24:51;1.20;96.30
27803;DHT22;15182;48.174;11.562;2022-12-18T01:27:24;1.20;96.30
27803;DHT22;15182;48.174;11.562;2022-12-18T01:29:57;1.20;96.30
27803;DHT22;15182;48.174;11.562;2022-12-18T01:32:28;1.20;96.70
27803;DHT22;15182;48.174;11.562;2022-12-18T01:35:00;1.20;96.40
27803;DHT22;15182;48.174;11.562;2022-12-18T01:37:31;1.20;96.40
27803;DHT22;15182;48.174;11.562;2022-12-18T01:40:03;1.20;96.40
27803;DHT22;15182;48.174;11.562;2022-12-18T01:42:37;1.20;96.40
27803;DHT22;15182;48.174;11.562;2022-12-18T01:45:25;1.20;96.40
27803;DHT22;15182;48.174;11.562;2022-12-18T01:47:58;1.20;96.50
27803;DHT22;15182;48.174;11.562;2022-12-18T01:50:36;1.20;96.50
27803;DHT22;15182;48.174;11.562;2022-12-18T01:53:10;1.20;96.40
27803;DHT22;15182;48.174;11.562;2022-12-18T01:55:48;1.20;96.40
27803;DHT22;15182;48.174;11.562;2022-12-18T01:58:22;1.20;96.40
27803;DHT22;15182;48.174;11.562;2022-12-18T02:01:01;1.20;96.40
27803;DHT22;15182;48.174;11.562;2022-12-18T02:03:34;1.20;96.40
27803;DHT22;15182;48.174;11.562;2022-12-18T02:06:12;1.20;96.50
27803;DHT22;15182;48.174;11.562;2022-12-18T02:08:57;1.20;96.50
27803;DHT22;15182;48.174;11.562;2022-12-18T02:11:39;1.20;96.60
27803;DHT22;15182;48.174;11.562;2022-12-18T02:14:18;1.20;96.60
27803;DHT22;15182;48.174;11.562;2022-12-18T02:17:03;1.20;96.50
27803;DHT22;15182;48.174;11.562;2022-12-18T02:19:44;1.20;96.60
27803;DHT22;15182;48.174;11.562;2022-12-18T02:22:28;1.20;96.60
27803;DHT22;15182;48.174;11.562;2022-12-18T02:25:16;1.20;96.60
27803;DHT22;15182;48.174;11.562;2022-12-18T02:27:56;1.20;96.60
27803;DHT22;15182;48.174;11.562;2022-12-18T02:30:33;1.20;96.60
27803;DHT22;15182;48.174;11.562;2022-12-18T02:33:10;1.20;96.50
27803;DHT22;15182;48.174;11.562;2022-12-18T02:35:46;1.20;96.50
27803;DHT22;15182;48.174;11.562;2022-12-18T02:38:19;1.20;96.50
27803;DHT22;15182;48.174;11.562;2022-12-18T02:40:53;1.20;96.50
27803;DHT22;15182;48.174;11.562;2022-12-18T02:43:27;1.20;96.50
27803;DHT22;15182;48.174;11.562;2022-12-18T02:46:21;1.20;96.50
27803;DHT22;15182;48.174;11.562;2022-12-18T02:48:54;1.20;96.50
27803;DHT22;15182;48.174;11.562;2022-12-18T02:51:45;1.20;96.50
27803;DHT22;15182;48.174;11.562;2022-12-18T02:54:25;1.20;96.50
27803;DHT22;15182;48.174;11.562;2022-12-18T02:57:08;1.20;96.50
27803;DHT22;15182;48.174;11.562;2022-12-18T02:59:52;1.20;96.50
27803;DHT22;15182;48.174;11.562;2022-12-18T03:02:31;1.20;96.50
27803;DHT22;15182;48.174;11.562;2022-12-18T03:05:10;1.20;96.50
27803;DHT22;15182;48.174;11.562;2022-12-18T03:07:50;1.20;96.50
27803;DHT22;15182;48.174;11.562;2022-12-18T03:10:26;1.20;96.50
27803;DHT22;15182;48.174;11.562;2022-12-18T03:13:06;1.20;96.60
27803;DHT22;15182;48.174;11.562;2022-12-18T03:15:44;1.20;96.60
27803;DHT22;15182;48.174;11.562;2022-12-18T03:18:19;1.20;96.60
27803;DHT22;15182;48.174;11.562;2022-12-18T03:20:55;1.20;96.60
27803;DHT22;15182;48.174;11.562;2022-12-18T03:23:32;1.20;96.60
27803;DHT22;15182;48.174;11.562;2022-12-18T03:26:10;1.20;96.60
27803;DHT22;15182;48.174;11.562;2022-12-18T03:28:47;1.20;96.60
27803;DHT22;15182;48.174;11.562;2022-12-18T03:31:24;1.20;96.70
27803;DHT22;15182;48.174;11.562;2022-12-18T03:34:03;1.10;96.60
27803;DHT22;15182;48.174;11.562;2022-12-18T03:36:43;1.20;96.60
27803;DHT22;15182;48.174;11.562;2022-12-18T03:39:16;1.20;96.60
27803;DHT22;15182;48.174;11.562;2022-12-18T03:42:00;1.20;96.60
27803;DHT22;15182;48.174;11.562;2022-12-18T03:44:43;1.20;96.60
27803;DHT22;15182;48.174;11.562;2022-12-18T03:47:25;1.20;96.60
27803;DHT22;15182;48.174;11.562;2022-12-18T03:50:10;1.20;96.60
27803;DHT22;15182;48.174;11.562;2022-12-18T03:52:49;1.20;96.60
27803;DHT22;15182;48.174;11.562;2022-12-18T03:55:25;1.20;96.60
27803;DHT22;15182;48.174;11.562;2022-12-18T03:58:03;1.20;96.70
27803;DHT22;15182;48.174;11.562;2022-12-18T04:00:54;1.20;96.70
27803;DHT22;15182;48.174;11.562;2022-12-18T04:03:30;1.20;96.70
27803;DHT22;15182;48.174;11.562;2022-12-18T04:06:04;1.20;96.70
27803;DHT22;15182;48.174;11.562;2022-12-18T04:08:36;1.20;96.70
27803;DHT22;15182;48.174;11.562;2022-12-18T04:11:09;1.20;96.70
27803;DHT22;15182;48.174;11.562;2022-12-18T04:13:41;1.20;96.70
27803;DHT22;15182;48.174;11.562;2022-12-18T04:16:21;1.20;96.70
27803;DHT22;15182;48.174;11.562;2022-12-18T04:18:57;1.20;96.70
27803;DHT22;15182;48.174;11.562;2022-12-18T04:21:34;1.20;96.70
27803;DHT22;15182;48.174;11.562;2022-12-18T04:24:05;1.20;96.70
27803;DHT22;15182;48.174;11.562;2022-12-18T04:26:39;1.20;96.60
27803;DHT22;15182;48.174;11.562;2022-12-18T04:29:17;1.20;96.60
27803;DHT22;15182;48.174;11.562;2022-12-18T04:31:49;1.20;96.60
27803;DHT22;15182;48.174;11.562;2022-12-18T04:34:24;1.20;96.60
27803;DHT22;15182;48.174;11.562;2022-12-18T04:36:56;1.20;96.60
27803;DHT22;15182;48.174;11.562;2022-12-18T04:39:27;1.20;96.70
27803;DHT22;15182;48.174;11.562;2022-12-18T04:42:04;1.20;96.70
27803;DHT22;15182;48.174;11.562;2022-12-18T04:44:36;1.20;96.70
27803;DHT22;15182;48.174;11.562;2022-12-18T04:47:07;1.20;96.70
27803;DHT22;15182;48.174;11.562;2022-12-18T04:49:39;1.20;96.70
27803;DHT22;15182;48.174;11.562;2022-12-18T04:52:10;1.20;96.70
27803;DHT22;15182;48.174;11.562;2022-12-18T04:54:42;1.20;96.70
27803;DHT22;15182;48.174;11.562;2022-12-18T04:57:13;1.20;96.70
27803;DHT22;15182;48.174;11.562;2022-12-18T04:59:47;1.20;96.70
27803;DHT22;15182;48.174;11.562;2022-12-18T05:02:19;1.20;96.70
27803;DHT22;15182;48.174;11.562;2022-12-18T05:04:51;1.20;96.80
27803;DHT22;15182;48.174;11.562;2022-12-18T05:07:23;1.20;96.80
27803;DHT22;15182;48.174;11.562;2022-12-18T05:09:55;1.20;96.70
27803;DHT22;15182;48.174;11.562;2022-12-18T05:12:26;1.20;96.70
27803;DHT22;15182;48.174;11.562;2022-12-18T05:14:58;1.30;96.70
27803;DHT22;15182;48.174;11.562;2022-12-18T05:17:29;1.30;96.70
27803;DHT22;15182;48.174;11.562;2022-12-18T05:20:05;1.30;96.70
27803;DHT22;15182;48.174;11.562;2022-12-18T05:22:36;1.30;96.70
27803;DHT22;15182;48.174;11.562;2022-12-18T05:25:09;1.30;96.70
27803;DHT22;15182;48.174;11.562;2022-12-18T05:27:40;1.30;96.70
27803;DHT22;15182;48.174;11.562;2022-12-18T05:30:14;1.30;96.70
27803;DHT22;15182;48.174;11.562;2022-12-18T05:32:46;1.30;96.60
27803;DHT22;15182;48.174;11.562;2022-12-18T05:35:19;1.30;96.60
27803;DHT22;15182;48.174;11.562;2022-12-18T05:37:51;1.30;96.60
27803;DHT22;15182;48.174;11.562;2022-12-18T05:40:22;1.30;96.60
27803;DHT22;15182;48.174;11.562;2022-12-18T05:42:56;1.30;96.60
27803;DHT22;15182;48.174;11.562;2022-12-18T05:45:29;1.30;96.60
27803;DHT22;15182;48.174;11.562;2022-12-18T05:48:00;1.30;96.60
27803;DHT22;15182;48.174;11.562;2022-12-18T05:50:33;1.30;96.60
27803;DHT22;15182;48.174;11.562;2022-12-18T05:53:07;1.30;96.60
27803;DHT22;15182;48.174;11.562;2022-12-18T05:55:40;1.30;96.60
27803;DHT22;15182;48.174;11.562;2022-12-18T05:58:13;1.30;96.60
27803;DHT22;15182;48.174;11.562;2022-12-18T06:00:46;1.30;96.60
27803;DHT22;15182;48.174;11.562;2022-12-18T06:03:17;1.30;96.60
27803;DHT22;15182;48.174;11.562;2022-12-18T06:05:50;1.30;96.50
27803;DHT22;15182;48.174;11.562;2022-12-18T06:08:21;1.30;96.50
27803;DHT22;15182;48.174;11.562;2022-12-18T06:10:54;1.30;96.50
27803;DHT22;15182;48.174;11.562;2022-12-18T06:13:25;1.30;96.50
27803;DHT22;15182;48.174;11.562;2022-12-18T06:15:56;1.30;96.50
27803;DHT22;15182;48.174;11.562;2022-12-18T06:18:28;1.30;96.40
27803;DHT22;15182;48.174;11.562;2022-12-18T06:21:01;1.30;96.40
27803;DHT22;15182;48.174;11.562;2022-12-18T06:23:32;1.20;96.50
27803;DHT22;15182;48.174;11.562;2022-12-18T06:26:09;1.20;96.50
27803;DHT22;15182;48.174;11.562;2022-12-18T06:28:41;1.20;96.60
27803;DHT22;15182;48.174;11.562;2022-12-18T06:31:13;1.20;96.90
27803;DHT22;15182;48.174;11.562;2022-12-18T06:33:44;1.20;96.50
27803;DHT22;15182;48.174;11.562;2022-12-18T06:36:17;1.30;96.60
27803;DHT22;15182;48.174;11.562;2022-12-18T06:38:49;1.20;96.50
27803;DHT22;15182;48.174;11.562;2022-12-18T06:41:22;1.20;96.50
27803;DHT22;15182;48.174;11.562;2022-12-18T06:43:53;1.20;96.50
27803;DHT22;15182;48.174;11.562;2022-12-18T06:46:25;1.20;96.50
27803;DHT22;15182;48.174;11.562;2022-12-18T06:48:56;1.20;96.40
27803;DHT22;15182;48.174;11.562;2022-12-18T06:51:28;1.20;96.40
27803;DHT22;15182;48.174;11.562;2022-12-18T06:54:00;1.20;96.40
27803;DHT22;15182;48.174;11.562;2022-12-18T06:56:31;1.20;96.40
27803;DHT22;15182;48.174;11.562;2022-12-18T06:59:02;1.10;96.40
27803;DHT22;15182;48.174;11.562;2022-12-18T07:01:34;1.20;96.40
27803;DHT22;15182;48.174;11.562;2022-12-18T07:04:06;1.20;96.50
27803;DHT22;15182;48.174;11.562;2022-12-18T07:06:39;1.20;96.50
27803;DHT22;15182;48.174;11.562;2022-12-18T07:09:10;1.20;96.40
27803;DHT22;15182;48.174;11.562;2022-12-18T07:11:41;1.20;96.40
27803;DHT22;15182;48.174;11.562;2022-12-18T07:14:15;1.10;96.70
27803;DHT22;15182;48.174;11.562;2022-12-18T07:16:47;1.10;96.30
27803;DHT22;15182;48.174;11.562;2022-12-18T07:19:18;1.10;96.30
27803;DHT22;15182;48.174;11.562;2022-12-18T07:21:54;1.10;96.30
27803;DHT22;15182;48.174;11.562;2022-12-18T07:24:26;1.10;96.30
27803;DHT22;15182;48.174;11.562;2022-12-18T07:26:57;1.10;96.30
27803;DHT22;15182;48.174;11.562;2022-12-18T07:29:28;1.10;96.40
27803;DHT22;15182;48.174;11.562;2022-12-18T07:32:00;1.10;96.40
27803;DHT22;15182;48.174;11.562;2022-12-18T07:34:31;1.10;96.40
27803;DHT22;15182;48.174;11.562;2022-12-18T07:37:04;1.10;96.40
27803;DHT22;15182;48.174;11.562;2022-12-18T07:39:36;1.10;96.30
27803;DHT22;15182;48.174;11.562;2022-12-18T07:42:10;1.10;96.30
27803;DHT22;15182;48.174;11.562;2022-12-18T07:45:01;1.10;96.30
27803;DHT22;15182;48.174;11.562;2022-12-18T07:47:36;1.10;96.30
27803;DHT22;15182;48.174;11.562;2022-12-18T07:50:09;1.10;96.30
27803;DHT22;15182;48.174;11.562;2022-12-18T07:52:42;1.10;96.30
27803;DHT22;15182;48.174;11.562;2022-12-18T07:55:14;1.10;96.30
27803;DHT22;15182;48.174;11.562;2022-12-18T07:57:46;1.10;96.40
27803;DHT22;15182;48.174;11.562;2022-12-18T08:00:17;1.10;96.40
27803;DHT22;15182;48.174;11.562;2022-12-18T08:02:49;1.10;96.40
27803;DHT22;15182;48.174;11.562;2022-12-18T08:05:20;1.10;96.40
27803;DHT22;15182;48.174;11.562;2022-12-18T08:07:52;1.10;96.40
27803;DHT22;15182;48.174;11.562;2022-12-18T08:10:24;1.10;96.40
27803;DHT22;15182;48.174;11.562;2022-12-18T08:12:55;1.20;96.40
27803;DHT22;15182;48.174;11.562;2022-12-18T08:15:26;1.20;96.30
27803;DHT22;15182;48.174;11.562;2022-12-18T08:17:58;1.20;96.30
27803;DHT22;15182;48.174;11.562;2022-12-18T08:20:29;1.10;96.30
27803;DHT22;15182;48.174;11.562;2022-12-18T08:23:02;1.10;96.30
27803;DHT22;15182;48.174;11.562;2022-12-18T08:25:33;1.10;96.30
27803;DHT22;15182;48.174;11.562;2022-12-18T08:28:04;1.10;96.30
27803;DHT22;15182;48.174;11.562;2022-12-18T08:30:37;1.10;96.30
27803;DHT22;15182;48.174;11.562;2022-12-18T08:33:08;1.20;96.40
27803;DHT22;15182;48.174;11.562;2022-12-18T08:35:39;1.20;96.40
27803;DHT22;15182;48.174;11.562;2022-12-18T08:38:12;1.20;96.40
27803;DHT22;15182;48.174;11.562;2022-12-18T08:40:44;1.20;96.40
27803;DHT22;15182;48.174;11.562;2022-12-18T08:43:15;1.20;96.40
27803;DHT22;15182;48.174;11.562;2022-12-18T08:46:04;1.20;96.40
27803;DHT22;15182;48.174;11.562;2022-12-18T08:48:37;1.30;96.40
27803;DHT22;15182;48.174;11.562;2022-12-18T08:51:08;1.30;96.40
27803;DHT22;15182;48.174;11.562;2022-12-18T08:53:42;1.30;96.40
27803;DHT22;15182;48.174;11.562;2022-12-18T08:56:15;1.30;96.40
27803;DHT22;15182;48.174;11.562;2022-12-18T08:58:51;1.30;96.30
27803;DHT22;15182;48.174;11.562;2022-12-18T09:01:23;1.40;96.40
27803;DHT22;15182;48.174;11.562;2022-12-18T09:03:55;1.40;96.40
27803;DHT22;15182;48.174;11.562;2022-12-18T09:06:26;1.40;96.40
27803;DHT22;15182;48.174;11.562;2022-12-18T09:08:59;1.40;96.40
27803;DHT22;15182;48.174;11.562;2022-12-18T09:11:31;1.40;96.20
27803;DHT22;15182;48.174;11.562;2022-12-18T09:14:03;1.40;96.20
27803;DHT22;15182;48.174;11.562;2022-12-18T09:16:35;1.40;96.30
27803;DHT22;15182;48.174;11.562;2022-12-18T09:19:08;1.40;96.20
27803;DHT22;15182;48.174;11.562;2022-12-18T09:21:40;1.40;96.30
27803;DHT22;15182;48.174;11.562;2022-12-18T09:24:14;1.40;96.30
27803;DHT22;15182;48.174;11.562;2022-12-18T09:26:45;1.50;96.30
27803;DHT22;15182;48.174;11.562;2022-12-18T09:29:17;1.50;96.30
27803;DHT22;15182;48.174;11.562;2022-12-18T09:31:49;1.50;96.30
27803;DHT22;15182;48.174;11.562;2022-12-18T09:34:20;1.50;96.30
27803;DHT22;15182;48.174;11.562;2022-12-18T09:36:54;1.50;96.20
27803;DHT22;15182;48.174;11.562;2022-12-18T09:39:26;1.50;96.20
27803;DHT22;15182;48.174;11.562;2022-12-18T09:41:59;1.60;96.20
27803;DHT22;15182;48.174;11.562;2022-12-18T09:44:33;1.60;96.10
27803;DHT22;15182;48.174;11.562;2022-12-18T09:47:14;1.60;96.10
27803;DHT22;15182;48.174;11.562;2022-12-18T09:49:49;1.60;96.10
27803;DHT22;15182;48.174;11.562;2022-12-18T09:52:26;1.60;96.10
27803;DHT22;15182;48.174;11.562;2022-12-18T09:55:03;1.60;96.10
27803;DHT22;15182;48.174;11.562;2022-12-18T09:57:51;1.60;96.00
27803;DHT22;15182;48.174;11.562;2022-12-18T10:00:26;1.60;96.10
27803;DHT22;15182;48.174;11.562;2022-12-18T10:03:02;1.60;96.10
27803;DHT22;15182;48.174;11.562;2022-12-18T10:05:40;1.70;96.10
27803;DHT22;15182;48.174;11.562;2022-12-18T10:08:21;1.70;96.10
27803;DHT22;15182;48.174;11.562;2022-12-18T10:11:01;1.70;96.00
27803;DHT22;15182;48.174;11.562;2022-12-18T10:13:44;1.70;95.90
27803;DHT22;15182;48.174;11.562;2022-12-18T10:16:23;1.70;95.90
27803;DHT22;15182;48.174;11.562;2022-12-18T10:19:09;1.70;95.90
27803;DHT22;15182;48.174;11.562;2022-12-18T10:21:48;1.70;95.80
27803;DHT22;15182;48.174;11.562;2022-12-18T10:24:30;1.70;95.80
27803;DHT22;15182;48.174;11.562;2022-12-18T10:27:12;1.70;95.80
27803;DHT22;15182;48.174;11.562;2022-12-18T10:29:47;1.70;95.90
27803;DHT22;15182;48.174;11.562;2022-12-18T10:32:22;1.80;95.90
27803;DHT22;15182;48.174;11.562;2022-12-18T10:34:55;1.70;95.80
27803;DHT22;15182;48.174;11.562;2022-12-18T10:37:28;1.70;95.80
27803;DHT22;15182;48.174;11.562;2022-12-18T10:40:15;1.80;95.80
27803;DHT22;15182;48.174;11.562;2022-12-18T10:43:09;1.80;96.20
27803;DHT22;15182;48.174;11.562;2022-12-18T10:45:43;1.80;95.80
27803;DHT22;15182;48.174;11.562;2022-12-18T10:48:28;1.80;95.80
27803;DHT22;15182;48.174;11.562;2022-12-18T10:51:02;1.80;95.80
27803;DHT22;15182;48.174;11.562;2022-12-18T10:53:36;1.80;95.80
27803;DHT22;15182;48.174;11.562;2022-12-18T10:56:11;1.80;95.70
27803;DHT22;15182;48.174;11.562;2022-12-18T10:58:44;1.80;95.70
27803;DHT22;15182;48.174;11.562;2022-12-18T11:01:24;1.90;95.70
27803;DHT22;15182;48.174;11.562;2022-12-18T11:04:07;1.90;95.80
27803;DHT22;15182;48.174;11.562;2022-12-18T11:06:53;1.90;95.80
27803;DHT22;15182;48.174;11.562;2022-12-18T11:09:26;1.90;95.80
27803;DHT22;15182;48.174;11.562;2022-12-18T11:12:02;1.90;95.80
27803;DHT22;15182;48.174;11.562;2022-12-18T11:14:45;1.90;95.80
27803;DHT22;15182;48.174;11.562;2022-12-18T11:17:21;2.00;95.60
27803;DHT22;15182;48.174;11.562;2022-12-18T11:19:55;2.00;95.60
27803;DHT22;15182;48.174;11.562;2022-12-18T11:22:29;2.00;95.70
27803;DHT22;15182;48.174;11.562;2022-12-18T11:25:05;1.90;95.70
27803;DHT22;15182;48.174;11.562;2022-12-18T11:27:54;2.00;95.70
27803;DHT22;15182;48.174;11.562;2022-12-18T11:30:30;2.00;95.60
27803;DHT22;15182;48.174;11.562;2022-12-18T11:33:06;2.00;95.60
27803;DHT22;15182;48.174;11.562;2022-12-18T11:35:46;2.00;95.70
27803;DHT22;15182;48.174;11.562;2022-12-18T11:38:23;2.00;95.70
27803;DHT22;15182;48.174;11.562;2022-12-18T11:40:59;2.00;95.60
27803;DHT22;15182;48.174;11.562;2022-12-18T11:43:38;2.00;95.60
27803;DHT22;15182;48.174;11.562;2022-12-18T11:46:17;2.00;95.50
27803;DHT22;15182;48.174;11.562;2022-12-18T11:48:58;2.00;95.50
27803;DHT22;15182;48.174;11.562;2022-12-18T11:51:36;2.10;95.60
27803;DHT22;15182;48.174;11.562;2022-12-18T11:54:14;2.00;95.60
27803;DHT22;15182;48.174;11.562;2022-12-18T11:56:49;2.10;95.60
27803;DHT22;15182;48.174;11.562;2022-12-18T11:59:29;2.10;95.40
27803;DHT22;15182;48.174;11.562;2022-12-18T12:02:24;2.10;95.40
27803;DHT22;15182;48.174;11.562;2022-12-18T12:05:20;2.10;95.40
27803;DHT22;15182;48.174;11.562;2022-12-18T12:07:57;2.00;95.40
27803;DHT22;15182;48.174;11.562;2022-12-18T12:10:42;2.10;95.50
27803;DHT22;15182;48.174;11.562;2022-12-18T12:13:27;2.10;95.50
27803;DHT22;15182;48.174;11.562;2022-12-18T12:16:10;2.10;95.40
27803;DHT22;15182;48.174;11.562;2022-12-18T12:18:53;2.00;95.40
27803;DHT22;15182;48.174;11.562;2022-12-18T12:21:32;2.00;95.30
27803;DHT22;15182;48.174;11.562;2022-12-18T12:24:12;2.00;95.30
27803;DHT22;15182;48.174;11.562;2022-12-18T12:26:55;2.00;95.40
27803;DHT22;15182;48.174;11.562;2022-12-18T12:29:38;2.00;95.30
27803;DHT22;15182;48.174;11.562;2022-12-18T12:32:22;1.90;95.40
27803;DHT22;15182;48.174;11.562;2022-12-18T12:35:08;1.90;95.40
27803;DHT22;15182;48.174;11.562;2022-12-18T12:37:49;1.90;95.30
27803;DHT22;15182;48.174;11.562;2022-12-18T12:40:27;1.90;95.30
27803;DHT22;15182;48.174;11.562;2022-12-18T12:43:02;1.90;95.40
27803;DHT22;15182;48.174;11.562;2022-12-18T12:45:44;1.90;95.40
27803;DHT22;15182;48.174;11.562;2022-12-18T12:48:21;1.90;95.40
27803;DHT22;15182;48.174;11.562;2022-12-18T12:50:59;1.90;95.40
27803;DHT22;15182;48.174;11.562;2022-12-18T12:53:33;1.90;95.40
27803;DHT22;15182;48.174;11.562;2022-12-18T12:56:06;1.90;95.40
27803;DHT22;15182;48.174;11.562;2022-12-18T12:58:45;1.90;95.40
27803;DHT22;15182;48.174;11.562;2022-12-18T13:01:24;1.90;95.30
27803;DHT22;15182;48.174;11.562;2022-12-18T13:04:05;1.90;95.40
27803;DHT22;15182;48.174;11.562;2022-12-18T13:06:47;1.90;95.40
27803;DHT22;15182;48.174;11.562;2022-12-18T13:09:19;1.80;95.20
27803;DHT22;15182;48.174;11.562;2022-12-18T13:11:51;1.90;95.10
27803;DHT22;15182;48.174;11.562;2022-12-18T13:14:41;1.80;95.20
27803;DHT22;15182;48.174;11.562;2022-12-18T13:17:29;1.80;95.30
27803;DHT22;15182;48.174;11.562;2022-12-18T13:20:09;1.80;95.40
27803;DHT22;15182;48.174;11.562;2022-12-18T13:22:44;1.80;95.50
27803;DHT22;15182;48.174;11.562;2022-12-18T13:25:32;1.80;95.40
27803;DHT22;15182;48.174;11.562;2022-12-18T13:28:09;1.80;95.40
27803;DHT22;15182;48.174;11.562;2022-12-18T13:30:56;1.80;95.40
27803;DHT22;15182;48.174;11.562;2022-12-18T13:33:45;1.80;95.40
27803;DHT22;15182;48.174;11.562;2022-12-18T13:36:28;1.90;95.50
27803;DHT22;15182;48.174;11.562;2022-12-18T13:39:15;1.90;95.50
27803;DHT22;15182;48.174;11.562;2022-12-18T13:42:30;1.90;95.30
27803;DHT22;15182;48.174;11.562;2022-12-18T13:45:44;1.80;95.20
27803;DHT22;15182;48.174;11.562;2022-12-18T13:48:23;1.80;95.30
27803;DHT22;15182;48.174;11.562;2022-12-18T13:50:59;1.70;95.30
27803;DHT22;15182;48.174;11.562;2022-12-18T13:53:35;1.70;95.30
27803;DHT22;15182;48.174;11.562;2022-12-18T13:56:09;1.70;95.40
27803;DHT22;15182;48.174;11.562;2022-12-18T14:01:56;1.70;95.40
27803;DHT22;15182;48.174;11.562;2022-12-18T14:04:30;1.70;95.40
27803;DHT22;15182;48.174;11.562;2022-12-18T14:07:05;1.60;95.40
27803;DHT22;15182;48.174;11.562;2022-12-18T14:09:43;1.60;95.40
27803;DHT22;15182;48.174;11.562;2022-12-18T14:12:19;1.60;95.50
27803;DHT22;15182;48.174;11.562;2022-12-18T14:15:20;1.60;95.50
27803;DHT22;15182;48.174;11.562;2022-12-18T14:17:56;1.60;95.60
27803;DHT22;15182;48.174;11.562;2022-12-18T14:20:29;1.60;95.60
27803;DHT22;15182;48.174;11.562;2022-12-18T14:23:02;1.60;95.60
27803;DHT22;15182;48.174;11.562;2022-12-18T14:25:33;1.60;95.70
27803;DHT22;15182;48.174;11.562;2022-12-18T14:28:14;1.70;95.70
27803;DHT22;15182;48.174;11.562;2022-12-18T14:30:48;1.70;95.60
27803;DHT22;15182;48.174;11.562;2022-12-18T14:33:22;1.60;95.60
27803;DHT22;15182;48.174;11.562;2022-12-18T14:35:55;1.70;95.70
27803;DHT22;15182;48.174;11.562;2022-12-18T14:38:31;1.70;95.70
27803;DHT22;15182;48.174;11.562;2022-12-18T14:41:05;1.70;95.80
27803;DHT22;15182;48.174;11.562;2022-12-18T14:43:42;1.70;95.70
27803;DHT22;15182;48.174;11.562;2022-12-18T14:46:29;1.70;95.70
27803;DHT22;15182;48.174;11.562;2022-12-18T14:49:03;1.70;95.60
27803;DHT22;15182;48.174;11.562;2022-12-18T14:51:50;1.60;95.50
27803;DHT22;15182;48.174;11.562;2022-12-18T14:54:24;1.60;95.50
27803;DHT22;15182;48.174;11.562;2022-12-18T14:56:59;1.60;95.50
27803;DHT22;15182;48.174;11.562;2022-12-18T14:59:34;1.60;95.50
27803;DHT22;15182;48.174;11.562;2022-12-18T15:02:12;1.50;95.50
27803;DHT22;15182;48.174;11.562;2022-12-18T15:04:47;1.50;95.90
27803;DHT22;15182;48.174;11.562;2022-12-18T15:07:23;1.50;95.60
27803;DHT22;15182;48.174;11.562;2022-12-18T15:10:09;1.40;95.60
27803;DHT22;15182;48.174;11.562;2022-12-18T15:12:44;1.40;95.60
27803;DHT22;15182;48.174;11.562;2022-12-18T15:15:47;1.40;95.50
27803;DHT22;15182;48.174;11.562;2022-12-18T15:18:20;1.40;95.50
27803;DHT22;15182;48.174;11.562;2022-12-18T15:20:54;1.30;95.60
27803;DHT22;15182;48.174;11.562;2022-12-18T15:23:30;1.30;95.70
27803;DHT22;15182;48.174;11.562;2022-12-18T15:26:07;1.30;95.80
27803;DHT22;15182;48.174;11.562;2022-12-18T15:28:43;1.30;95.80
27803;DHT22;15182;48.174;11.562;2022-12-18T15:31:34;1.20;95.70
27803;DHT22;15182;48.174;11.562;2022-12-18T15:34:12;1.20;95.80
27803;DHT22;15182;48.174;11.562;2022-12-18T15:36:49;1.20;95.80
27803;DHT22;15182;48.174;11.562;2022-12-18T15:39:20;1.20;95.90
27803;DHT22;15182;48.174;11.562;2022-12-18T15:41:52;1.20;95.90
27803;DHT22;15182;48.174;11.562;2022-12-18T15:44:41;1.20;95.90
27803;DHT22;15182;48.174;11.562;2022-12-18T15:47:16;1.20;95.90
27803;DHT22;15182;48.174;11.562;2022-12-18T15:49:47;1.20;95.90
27803;DHT22;15182;48.174;11.562;2022-12-18T15:52:18;1.20;95.90
27803;DHT22;15182;48.174;11.562;2022-12-18T15:54:53;1.20;96.00
27803;DHT22;15182;48.174;11.562;2022-12-18T15:57:43;1.20;96.00
27803;DHT22;15182;48.174;11.562;2022-12-18T16:00:18;1.20;96.30
27803;DHT22;15182;48.174;11.562;2022-12-18T16:02:52;1.20;95.90
27803;DHT22;15182;48.174;11.562;2022-12-18T16:05:23;1.20;95.90
27803;DHT22;15182;48.174;11.562;2022-12-18T16:07:56;1.20;95.90
27803;DHT22;15182;48.174;11.562;2022-12-18T16:10:28;1.20;95.90
27803;DHT22;15182;48.174;11.562;2022-12-18T16:12:59;1.20;95.90
27803;DHT22;15182;48.174;11.562;2022-12-18T16:15:31;1.10;95.90
27803;DHT22;15182;48.174;11.562;2022-12-18T16:18:04;1.10;95.90
27803;DHT22;15182;48.174;11.562;2022-12-18T16:20:35;1.10;96.00
27803;DHT22;15182;48.174;11.562;2022-12-18T16:23:06;1.10;96.00
27803;DHT22;15182;48.174;11.562;2022-12-18T16:25:39;1.10;96.00
27803;DHT22;15182;48.174;11.562;2022-12-18T16:28:11;1.10;96.00